createdAt,value
2023-12-31T07:42:56.999Z,2.60
2023-12-31T07:45:58.749Z,2.38
2023-12-31T07:49:00.435Z,1.35
2023-12-31T07:52:02.029Z,3.78
2023-12-31T07:55:04.642Z,3.50
2023-12-31T07:58:06.159Z,1.33
2023-12-31T08:01:07.754Z,2.20
2023-12-31T08:04:09.998Z,1.50
2023-12-31T08:07:11.770Z,1.80
2023-12-31T08:10:13.375Z,3.08
2023-12-31T08:13:14.951Z,11.52
2023-12-31T08:16:16.508Z,1.33
2023-12-31T08:19:18.196Z,4.20
2023-12-31T08:22:19.773Z,4.75
2023-12-31T08:25:21.469Z,5.82
2023-12-31T08:28:23.476Z,2.75
2023-12-31T08:31:25.035Z,9.85
2023-12-31T08:34:26.746Z,8.18
2023-12-31T08:37:29.659Z,12.85
2023-12-31T08:40:31.297Z,6.60
2023-12-31T08:43:35.167Z,3.83
2023-12-31T08:46:38.121Z,4.05
2023-12-31T08:49:39.806Z,4.25
2023-12-31T08:52:45.132Z,3.10
2023-12-31T08:55:48.785Z,2.83
2023-12-31T08:58:50.330Z,3.72
2023-12-31T09:01:52.833Z,3.55
2023-12-31T09:04:54.606Z,2.30
2023-12-31T09:07:56.308Z,6.13
2023-12-31T09:10:57.925Z,3.75
2023-12-31T09:14:00.760Z,2.78
2023-12-31T09:17:02.310Z,1.65
2023-12-31T09:20:06.673Z,1.23
2023-12-31T09:23:09.699Z,2.45
2023-12-31T09:26:16.041Z,2.38
2023-12-31T09:29:18.272Z,2.10
2023-12-31T09:32:19.794Z,1.30
2023-12-31T09:35:21.308Z,3.13
2023-12-31T09:38:22.984Z,1.48
2023-12-31T09:41:25.368Z,1.25
2023-12-31T09:44:27.103Z,2.03
2023-12-31T09:47:29.220Z,1.48
2023-12-31T09:50:33.617Z,0.65
2023-12-31T09:53:37.528Z,0.93
2023-12-31T09:56:40.128Z,1.17
2023-12-31T09:59:43.731Z,1.27
2023-12-31T10:02:46.080Z,1.90
2023-12-31T10:05:50.951Z,1.40
2023-12-31T10:08:55.087Z,3.38
2023-12-31T10:11:57.184Z,1.35
2023-12-31T10:14:58.654Z,1.33
2023-12-31T10:18:07.437Z,0.98
2023-12-31T10:21:10.804Z,2.45
2023-12-31T10:24:12.495Z,0.88
2023-12-31T10:27:14.491Z,1.30
2023-12-31T10:30:16.196Z,1.48
2023-12-31T10:33:18.812Z,2.78
2023-12-31T10:36:25.293Z,1.20
2023-12-31T10:39:32.644Z,1.35
2023-12-31T10:42:34.584Z,1.05
2023-12-31T10:45:39.299Z,0.60
2023-12-31T10:48:48.133Z,1.13
2023-12-31T10:51:53.382Z,1.42
2023-12-31T10:54:56.792Z,1.35
2023-12-31T10:57:59.094Z,1.15
2023-12-31T11:01:02.228Z,0.85
2023-12-31T11:04:05.393Z,0.90
2023-12-31T11:07:09.585Z,1.02
2023-12-31T11:10:11.217Z,1.30
2023-12-31T11:13:15.371Z,0.80
2023-12-31T11:16:48.386Z,1.27
2023-12-31T11:20:29.747Z,0.98
2023-12-31T11:23:45.800Z,0.82
2023-12-31T11:27:04.391Z,2.60
2023-12-31T11:30:07.425Z,0.60
2023-12-31T11:33:09.296Z,1.63
2023-12-31T11:36:16.707Z,0.60
2023-12-31T11:39:18.283Z,1.10
2023-12-31T11:42:20.210Z,0.95
2023-12-31T11:45:40.149Z,0.68
2023-12-31T11:48:41.894Z,0.93
2023-12-31T11:51:53.274Z,1.23
2023-12-31T11:54:59.376Z,1.00
2023-12-31T11:58:02.734Z,0.98
2023-12-31T12:01:04.894Z,0.80
2023-12-31T12:04:06.542Z,1.23
2023-12-31T12:07:08.111Z,0.77
2023-12-31T12:10:10.153Z,1.02
2023-12-31T12:13:12.329Z,0.88
2023-12-31T12:16:14.918Z,1.00
2023-12-31T12:19:17.283Z,0.82
2023-12-31T12:22:18.994Z,0.90
2023-12-31T12:25:21.817Z,0.98
2023-12-31T12:28:24.690Z,0.80
2023-12-31T12:31:26.317Z,0.77
2023-12-31T12:34:28.283Z,1.05
2023-12-31T12:37:30.482Z,0.73
2023-12-31T12:40:32.885Z,1.42
2023-12-31T12:43:35.027Z,1.00
2023-12-31T12:46:36.760Z,1.13
2023-12-31T12:49:38.609Z,1.35
2023-12-31T12:52:40.261Z,1.23
2023-12-31T12:55:41.795Z,1.35
2023-12-31T12:58:43.335Z,0.70
2023-12-31T13:01:44.966Z,0.57
2023-12-31T13:04:46.673Z,0.70
2023-12-31T13:07:48.741Z,0.50
2023-12-31T13:10:50.337Z,0.90
2023-12-31T13:13:52.889Z,0.63
2023-12-31T13:16:57.005Z,0.60
2023-12-31T13:19:59.559Z,0.85
2023-12-31T13:23:02.325Z,0.68
2023-12-31T13:26:04.263Z,0.85
2023-12-31T13:29:06.304Z,2.17
2023-12-31T13:32:10.586Z,0.57
2023-12-31T13:35:12.129Z,1.17
2023-12-31T13:38:24.083Z,0.65
2023-12-31T13:41:26.999Z,0.95
2023-12-31T13:44:28.634Z,1.05
2023-12-31T13:47:51.106Z,0.77
2023-12-31T13:50:52.748Z,0.88
2023-12-31T13:53:54.563Z,0.65
2023-12-31T13:56:56.108Z,0.95
2023-12-31T14:00:01.156Z,0.80
2023-12-31T14:03:08.110Z,0.60
2023-12-31T14:06:10.471Z,0.70
2023-12-31T14:09:12.422Z,1.15
2023-12-31T14:12:23.552Z,0.70
2023-12-31T14:15:25.425Z,0.70
2023-12-31T14:18:27.037Z,1.17
2023-12-31T14:21:28.663Z,0.63
2023-12-31T14:24:30.621Z,0.77
2023-12-31T14:27:32.198Z,0.75
2023-12-31T14:30:34.013Z,0.77
2023-12-31T14:33:35.920Z,0.77
2023-12-31T14:36:37.610Z,0.90
2023-12-31T14:39:39.258Z,0.80
2023-12-31T14:42:40.845Z,0.70
2023-12-31T14:45:42.429Z,0.80
2023-12-31T14:48:44.143Z,0.80
2023-12-31T14:51:45.782Z,0.80
2023-12-31T14:54:47.410Z,1.02
2023-12-31T14:57:49.026Z,1.02
2023-12-31T15:00:51.030Z,0.45
2023-12-31T15:03:52.753Z,1.00
2023-12-31T15:06:54.572Z,0.80
2023-12-31T15:09:56.175Z,0.80
2023-12-31T15:12:59.301Z,0.73
2023-12-31T15:16:00.971Z,0.98
2023-12-31T15:19:02.679Z,0.70
2023-12-31T15:22:04.925Z,1.08
2023-12-31T15:25:06.542Z,2.83
2023-12-31T15:28:08.867Z,1.20
2023-12-31T15:31:10.546Z,1.15
2023-12-31T15:34:12.137Z,1.10
2023-12-31T15:37:13.648Z,1.35
2023-12-31T15:40:15.240Z,1.13
2023-12-31T15:43:16.997Z,1.13
2023-12-31T15:46:18.526Z,0.85
2023-12-31T15:49:20.076Z,2.63
2023-12-31T15:52:21.866Z,1.02
2023-12-31T15:55:23.428Z,1.13
2023-12-31T15:58:25.181Z,1.15
